createdAt,value
2023-03-10T00:01:33.766Z,99.30
2023-03-10T00:04:01.287Z,99.40
2023-03-10T00:06:29.221Z,99.00
2023-03-10T00:08:56.269Z,99.40
2023-03-10T00:11:23.067Z,99.30
2023-03-10T00:13:49.856Z,99.40
2023-03-10T00:16:24.018Z,99.00
2023-03-10T00:18:50.999Z,99.20
2023-03-10T00:21:19.540Z,99.00
2023-03-10T00:23:47.179Z,99.30
2023-03-10T00:26:17.702Z,99.30
2023-03-10T00:28:44.590Z,99.60
2023-03-10T00:31:12.753Z,99.20
2023-03-10T00:33:39.529Z,99.50
2023-03-10T00:36:15.379Z,99.10
2023-03-10T00:38:42.647Z,99.50
2023-03-10T00:41:12.106Z,99.00
2023-03-10T00:43:38.951Z,99.50
2023-03-10T00:46:06.121Z,99.10
2023-03-10T00:48:33.053Z,99.40
2023-03-10T00:50:59.881Z,99.20
2023-03-10T00:53:26.674Z,99.50
2023-03-10T00:56:02.466Z,99.40
2023-03-10T00:58:30.013Z,99.60
2023-03-10T01:00:56.729Z,99.30
2023-03-10T01:03:24.424Z,99.50
2023-03-10T01:05:51.364Z,99.40
2023-03-10T01:08:18.453Z,99.50
2023-03-10T01:10:45.690Z,99.70
2023-03-10T01:13:13.008Z,99.40
2023-03-10T01:15:40.334Z,99.50
2023-03-10T01:18:07.364Z,99.70
2023-03-10T01:20:34.859Z,99.10
2023-03-10T01:23:01.874Z,99.40
2023-03-10T01:25:28.794Z,99.20
2023-03-10T01:27:55.587Z,99.30
2023-03-10T01:30:22.315Z,99.60
2023-03-10T01:32:49.244Z,99.40
2023-03-10T01:35:15.959Z,99.40
2023-03-10T01:37:44.463Z,99.50
2023-03-10T01:40:16.422Z,99.70
2023-03-10T01:42:43.680Z,99.60
2023-03-10T01:45:30.754Z,99.30
2023-03-10T01:47:57.521Z,99.30
2023-03-10T01:50:24.622Z,99.30
2023-03-10T01:52:56.749Z,99.70
2023-03-10T01:55:25.481Z,99.60
2023-03-10T01:57:53.770Z,99.50
2023-03-10T02:00:21.670Z,99.60
2023-03-10T02:03:08.021Z,99.70
2023-03-10T02:05:40.169Z,99.40
2023-03-10T02:08:06.852Z,99.80
2023-03-10T02:10:33.653Z,99.70
2023-03-10T02:13:00.577Z,99.30
2023-03-10T02:15:27.305Z,99.40
2023-03-10T02:17:54.431Z,99.50
2023-03-10T02:20:39.397Z,99.10
2023-03-10T02:23:06.130Z,99.70
2023-03-10T02:25:42.975Z,99.60
2023-03-10T02:28:10.169Z,99.70
2023-03-10T02:30:38.820Z,99.80
2023-03-10T02:33:07.691Z,99.40
2023-03-10T02:35:34.485Z,99.50
2023-03-10T02:38:01.225Z,99.60
2023-03-10T02:40:33.893Z,99.70
2023-03-10T02:43:02.392Z,99.60
2023-03-10T02:45:29.943Z,99.70
2023-03-10T02:47:56.759Z,99.90
2023-03-10T02:50:25.216Z,99.60
2023-03-10T02:52:55.866Z,99.50
2023-03-10T02:55:22.740Z,99.00
2023-03-10T02:57:49.490Z,99.60
2023-03-10T03:00:16.853Z,99.40
2023-03-10T03:02:43.616Z,99.50
2023-03-10T03:05:10.418Z,99.40
2023-03-10T03:07:37.112Z,99.40
2023-03-10T03:10:04.327Z,99.50
2023-03-10T03:12:31.022Z,99.50
2023-03-10T03:14:57.726Z,99.40
2023-03-10T03:17:24.468Z,99.70
2023-03-10T03:19:51.268Z,99.80
2023-03-10T03:22:17.997Z,99.60
2023-03-10T03:24:44.759Z,99.30
2023-03-10T03:27:11.492Z,99.70
2023-03-10T03:29:38.247Z,99.90
2023-03-10T03:32:05.301Z,99.90
2023-03-10T03:34:32.133Z,99.50
2023-03-10T03:36:58.871Z,99.80
2023-03-10T03:39:25.840Z,99.90
2023-03-10T03:41:53.468Z,99.60
2023-03-10T03:44:20.224Z,99.60
2023-03-10T03:46:46.948Z,99.90
2023-03-10T03:49:13.630Z,99.50
2023-03-10T03:51:40.428Z,99.50
2023-03-10T03:54:07.200Z,99.90
2023-03-10T03:56:33.893Z,99.50
2023-03-10T03:59:00.600Z,99.70
2023-03-10T04:01:27.388Z,99.60
2023-03-10T04:03:54.181Z,99.40
2023-03-10T04:06:20.956Z,99.50
2023-03-10T04:08:58.395Z,99.40
2023-03-10T04:11:25.115Z,99.40
2023-03-10T04:13:51.829Z,99.60
2023-03-10T04:16:18.723Z,99.80
2023-03-10T04:18:45.490Z,99.90
2023-03-10T04:21:12.221Z,99.70
2023-03-10T04:23:42.215Z,99.40
2023-03-10T04:26:09.416Z,99.50
2023-03-10T04:28:36.444Z,99.40
2023-03-10T04:31:03.605Z,99.50
2023-03-10T04:33:30.523Z,99.40
2023-03-10T04:35:57.296Z,99.60
2023-03-10T04:38:24.146Z,99.50
2023-03-10T04:40:58.559Z,99.60
2023-03-10T04:43:25.540Z,99.70
2023-03-10T04:45:52.382Z,99.40
2023-03-10T04:48:19.134Z,99.90
2023-03-10T04:50:45.980Z,99.70
2023-03-10T04:53:12.702Z,99.50
2023-03-10T04:55:39.406Z,99.50
2023-03-10T04:58:06.216Z,99.70
2023-03-10T05:00:32.964Z,99.50
2023-03-10T05:02:59.737Z,99.50
2023-03-10T05:05:26.516Z,99.60
2023-03-10T05:07:53.265Z,99.60
2023-03-10T05:10:20.056Z,99.50
2023-03-10T05:12:46.795Z,99.70
2023-03-10T05:15:13.593Z,99.70
2023-03-10T05:17:40.374Z,99.90
2023-03-10T05:20:09.234Z,99.70
2023-03-10T05:22:37.052Z,99.80
2023-03-10T05:25:05.034Z,99.80
2023-03-10T05:27:36.377Z,99.60
2023-03-10T05:30:05.137Z,99.90
2023-03-10T05:32:34.059Z,99.70
2023-03-10T05:35:00.944Z,99.90
2023-03-10T05:37:27.626Z,99.30
2023-03-10T05:39:54.322Z,99.50
2023-03-10T05:42:21.233Z,99.90
2023-03-10T05:44:48.300Z,99.50
2023-03-10T05:47:23.204Z,99.50
2023-03-10T05:49:50.167Z,99.50
2023-03-10T05:52:16.891Z,99.50
2023-03-10T05:54:43.657Z,99.80
2023-03-10T05:57:12.185Z,99.60
2023-03-10T05:59:40.865Z,99.50
2023-03-10T06:02:07.595Z,99.80
2023-03-10T06:04:34.408Z,99.90
2023-03-10T06:07:01.507Z,99.50
2023-03-10T06:09:28.912Z,99.40
2023-03-10T06:11:55.930Z,99.70
2023-03-10T06:14:22.832Z,99.50
2023-03-10T06:16:51.765Z,99.50
2023-03-10T06:19:18.692Z,99.30
2023-03-10T06:21:45.690Z,99.60
2023-03-10T06:24:12.457Z,99.70
2023-03-10T06:26:39.820Z,99.90
2023-03-10T06:29:06.915Z,99.90
2023-03-10T06:31:33.905Z,99.90
2023-03-10T06:34:03.937Z,99.70
2023-03-10T06:36:34.110Z,99.40
2023-03-10T06:39:00.818Z,99.90
2023-03-10T06:41:28.130Z,99.70
2023-03-10T06:43:54.894Z,99.30
2023-03-10T06:46:21.820Z,99.80
2023-03-10T06:48:49.536Z,99.90
2023-03-10T06:51:17.476Z,99.80
2023-03-10T06:53:44.306Z,99.90
2023-03-10T06:56:18.713Z,99.70
2023-03-10T06:58:45.984Z,99.70
2023-03-10T07:01:23.369Z,99.90
2023-03-10T07:03:50.456Z,99.70
2023-03-10T07:06:17.195Z,99.60
2023-03-10T07:08:43.886Z,99.60
2023-03-10T07:11:10.988Z,99.70
2023-03-10T07:13:38.677Z,99.70
2023-03-10T07:16:05.802Z,99.70
2023-03-10T07:18:32.929Z,99.70
2023-03-10T07:20:59.673Z,99.70
2023-03-10T07:23:26.479Z,99.50
2023-03-10T07:25:57.147Z,99.70
2023-03-10T07:28:24.714Z,99.90
2023-03-10T07:30:52.326Z,99.70
2023-03-10T07:33:19.194Z,99.90
2023-03-10T07:35:46.155Z,99.50
2023-03-10T07:38:12.980Z,99.50
2023-03-10T07:40:40.429Z,99.40
2023-03-10T07:43:07.271Z,99.70
2023-03-10T07:45:34.631Z,99.50
2023-03-10T07:48:01.426Z,99.60
2023-03-10T07:50:28.209Z,99.20
2023-03-10T07:52:55.577Z,99.40
2023-03-10T07:55:22.429Z,99.50
2023-03-10T07:57:49.177Z,99.50
2023-03-10T08:00:16.241Z,99.50
2023-03-10T08:02:42.983Z,99.60
2023-03-10T08:05:10.529Z,99.20
2023-03-10T08:07:38.168Z,99.50
2023-03-10T08:10:05.422Z,99.40
2023-03-10T08:12:32.498Z,99.40
2023-03-10T08:14:59.613Z,99.30
2023-03-10T08:17:30.883Z,99.40
2023-03-10T08:19:58.731Z,99.30
2023-03-10T08:22:26.051Z,99.30
2023-03-10T08:24:52.846Z,99.50
2023-03-10T08:27:19.833Z,99.50
2023-03-10T08:29:46.571Z,99.70
2023-03-10T08:32:13.469Z,99.20
2023-03-10T08:34:40.282Z,99.50
2023-03-10T08:37:06.986Z,99.30
2023-03-10T08:39:33.761Z,99.40
2023-03-10T08:42:00.510Z,99.20
2023-03-10T08:44:27.215Z,99.40
2023-03-10T08:46:54.092Z,99.50
2023-03-10T08:49:21.608Z,99.20
2023-03-10T08:51:49.084Z,98.60
2023-03-10T08:54:17.498Z,98.40
2023-03-10T08:56:44.282Z,99.10
2023-03-10T08:59:11.035Z,99.20
2023-03-10T09:01:38.005Z,99.00
2023-03-10T09:04:06.189Z,98.60
2023-03-10T09:06:32.970Z,98.80
2023-03-10T09:08:59.838Z,99.30
2023-03-10T09:11:28.329Z,99.00
2023-03-10T09:13:55.193Z,99.00
2023-03-10T09:16:22.024Z,98.50
2023-03-10T09:18:50.628Z,98.00
2023-03-10T09:21:18.303Z,99.30
2023-03-10T09:23:46.037Z,99.30
2023-03-10T09:26:12.823Z,99.80
2023-03-10T09:28:39.661Z,99.90
2023-03-10T09:31:07.154Z,99.90
2023-03-10T09:33:34.480Z,99.90
2023-03-10T09:36:07.326Z,99.80
2023-03-10T09:38:34.866Z,99.90
2023-03-10T09:41:05.044Z,99.90
2023-03-10T09:43:36.197Z,99.90
2023-03-10T09:46:15.569Z,99.90
2023-03-10T09:48:53.217Z,99.90
2023-03-10T09:51:24.058Z,99.90
2023-03-10T09:53:56.576Z,99.80
2023-03-10T09:56:29.465Z,99.80
2023-03-10T09:58:58.986Z,99.70
2023-03-10T10:01:28.197Z,99.90
2023-03-10T10:03:56.716Z,99.70
2023-03-10T10:06:25.207Z,99.70
2023-03-10T10:09:04.603Z,99.60
2023-03-10T10:11:33.405Z,99.50
2023-03-10T10:14:38.466Z,99.50
2023-03-10T10:17:18.885Z,99.70
2023-03-10T10:19:47.866Z,99.80
2023-03-10T10:22:26.779Z,99.90
2023-03-10T10:25:08.782Z,99.80
2023-03-10T10:27:40.045Z,99.90
2023-03-10T10:30:27.560Z,99.90
2023-03-10T10:32:58.737Z,99.90
2023-03-10T10:35:27.279Z,99.80
2023-03-10T10:38:03.335Z,99.40
2023-03-10T10:40:33.358Z,99.50
2023-03-10T10:43:00.983Z,99.50
2023-03-10T10:45:33.621Z,99.70
2023-03-10T10:48:00.537Z,99.70
2023-03-10T10:50:37.452Z,99.90
2023-03-10T10:53:16.471Z,99.60
2023-03-10T10:55:44.651Z,99.70
2023-03-10T10:58:30.317Z,99.80
2023-03-10T11:01:01.857Z,99.80
2023-03-10T11:03:33.217Z,99.80
2023-03-10T11:06:00.976Z,99.80
2023-03-10T11:08:27.718Z,98.90
2023-03-10T11:11:00.172Z,98.90
2023-03-10T11:13:35.806Z,99.20
2023-03-10T11:16:16.546Z,99.10
2023-03-10T11:18:48.068Z,98.80
2023-03-10T11:21:21.871Z,98.60
2023-03-10T11:23:48.640Z,98.40
2023-03-10T11:26:29.050Z,98.10
2023-03-10T11:29:00.225Z,98.00
2023-03-10T11:31:27.144Z,98.40
2023-03-10T11:33:56.956Z,98.10
2023-03-10T11:36:49.756Z,97.80
2023-03-10T11:39:32.184Z,98.10
2023-03-10T11:42:03.137Z,98.30
2023-03-10T11:44:36.188Z,98.30
2023-03-10T11:47:02.897Z,98.20
2023-03-10T11:49:36.420Z,98.40
2023-03-10T11:52:23.548Z,98.60
2023-03-10T11:54:53.640Z,98.30
2023-03-10T11:57:22.206Z,98.30
2023-03-10T12:00:01.319Z,98.50
2023-03-10T12:02:28.145Z,98.70
2023-03-10T12:05:08.045Z,98.40
2023-03-10T12:07:37.266Z,98.00
2023-03-10T12:10:05.424Z,97.80
2023-03-10T12:12:34.146Z,97.90
2023-03-10T12:15:02.555Z,98.10
2023-03-10T12:17:29.423Z,98.00
2023-03-10T12:20:24.240Z,97.80
2023-03-10T12:22:51.020Z,97.70
2023-03-10T12:25:30.069Z,97.80
2023-03-10T12:28:15.528Z,97.60
2023-03-10T12:30:57.642Z,97.40
2023-03-10T12:33:42.595Z,97.00
2023-03-10T12:36:12.681Z,96.70
2023-03-10T12:39:14.837Z,97.10
2023-03-10T12:41:44.102Z,97.10
2023-03-10T12:44:23.189Z,97.90
2023-03-10T12:46:59.792Z,97.80
2023-03-10T12:49:32.119Z,97.20
2023-03-10T12:52:07.991Z,97.40
2023-03-10T12:54:49.976Z,97.50
2023-03-10T12:57:19.223Z,97.00
2023-03-10T12:59:56.752Z,97.30
2023-03-10T13:02:35.782Z,97.40
2023-03-10T13:05:04.311Z,96.60
2023-03-10T13:07:31.200Z,95.80
2023-03-10T13:09:59.303Z,95.60
2023-03-10T13:12:45.129Z,95.70
2023-03-10T13:15:20.420Z,95.80
2023-03-10T13:17:47.180Z,95.60
2023-03-10T13:20:18.201Z,95.70
2023-03-10T13:22:56.049Z,95.40
2023-03-10T13:25:26.566Z,95.40
2023-03-10T13:27:58.504Z,95.90
2023-03-10T13:30:29.828Z,95.40
2023-03-10T13:33:00.424Z,94.80
2023-03-10T13:35:32.972Z,94.80
2023-03-10T13:38:18.833Z,95.30
2023-03-10T13:41:07.644Z,95.80
2023-03-10T13:43:44.830Z,96.30
2023-03-10T13:46:28.321Z,96.70
2023-03-10T13:49:00.811Z,97.00
2023-03-10T13:51:32.480Z,97.10
2023-03-10T13:54:21.068Z,97.40
2023-03-10T13:56:50.688Z,97.40
2023-03-10T13:59:30.611Z,97.50
2023-03-10T14:02:02.230Z,97.50
2023-03-10T14:04:42.838Z,97.60
2023-03-10T14:07:20.543Z,97.60
2023-03-10T14:09:50.480Z,97.70
2023-03-10T14:12:34.741Z,97.80
2023-03-10T14:15:19.757Z,97.80
2023-03-10T14:17:47.704Z,97.80
2023-03-10T14:20:33.204Z,97.80
2023-03-10T14:23:00.564Z,97.90
2023-03-10T14:25:27.491Z,97.90
2023-03-10T14:27:58.881Z,97.90
2023-03-10T14:30:27.709Z,98.00
2023-03-10T14:32:54.809Z,97.90
2023-03-10T14:35:22.278Z,97.90
2023-03-10T14:37:49.908Z,98.00
2023-03-10T14:40:17.419Z,97.80
2023-03-10T14:42:44.916Z,97.80
2023-03-10T14:45:20.532Z,97.80
2023-03-10T14:47:47.413Z,97.80
2023-03-10T14:50:14.729Z,97.80
2023-03-10T14:52:41.464Z,97.80
2023-03-10T14:55:11.412Z,97.80
2023-03-10T14:57:38.756Z,97.60
2023-03-10T15:00:11.014Z,97.70
2023-03-10T15:02:38.435Z,98.00
2023-03-10T15:05:05.482Z,97.60
2023-03-10T15:07:32.368Z,97.60
2023-03-10T15:10:10.641Z,97.60
2023-03-10T15:12:38.675Z,97.60
2023-03-10T15:15:07.259Z,97.60
2023-03-10T15:17:33.974Z,97.70
2023-03-10T15:20:00.701Z,97.50
2023-03-10T15:22:27.420Z,97.50
2023-03-10T15:24:54.182Z,97.40
2023-03-10T15:27:20.955Z,97.30
2023-03-10T15:29:47.687Z,97.20
2023-03-10T15:32:14.378Z,97.20
2023-03-10T15:34:41.219Z,97.30
2023-03-10T15:37:08.672Z,97.20
2023-03-10T15:39:37.278Z,97.00
2023-03-10T15:42:04.503Z,96.90
2023-03-10T15:44:31.221Z,96.90
2023-03-10T15:46:58.030Z,96.90
2023-03-10T15:49:24.967Z,97.00
2023-03-10T15:51:51.710Z,96.80
2023-03-10T15:54:18.479Z,97.20
2023-03-10T15:56:45.276Z,96.70
2023-03-10T15:59:12.296Z,96.80
2023-03-10T16:01:39.610Z,97.00
2023-03-10T16:04:06.755Z,97.10
2023-03-10T16:06:34.074Z,97.00
2023-03-10T16:09:00.965Z,96.90
2023-03-10T16:11:27.842Z,97.40
2023-03-10T16:13:54.582Z,97.40
2023-03-10T16:16:23.454Z,97.30
2023-03-10T16:18:50.654Z,97.40
2023-03-10T16:21:18.116Z,97.50
2023-03-10T16:23:45.290Z,97.70
2023-03-10T16:26:12.197Z,97.80
2023-03-10T16:28:40.559Z,97.70
2023-03-10T16:31:07.967Z,97.60
2023-03-10T16:33:34.755Z,97.80
2023-03-10T16:36:02.084Z,97.80
2023-03-10T16:38:29.128Z,97.80
2023-03-10T16:40:58.117Z,97.90
2023-03-10T16:43:27.048Z,98.00
2023-03-10T16:45:53.825Z,97.90
2023-03-10T16:48:20.844Z,97.90
2023-03-10T16:50:47.852Z,98.10
2023-03-10T16:53:16.686Z,98.00
2023-03-10T16:55:44.675Z,98.10
2023-03-10T16:58:11.408Z,98.00
2023-03-10T17:00:38.238Z,98.10
2023-03-10T17:03:05.214Z,98.20
2023-03-10T17:05:32.048Z,98.20
2023-03-10T17:08:02.531Z,98.30
2023-03-10T17:10:30.089Z,98.30
2023-03-10T17:12:57.045Z,98.20
2023-03-10T17:15:24.383Z,98.40
2023-03-10T17:17:51.234Z,98.20
2023-03-10T17:20:18.597Z,98.30
2023-03-10T17:22:45.361Z,98.30
2023-03-10T17:25:13.208Z,98.30
2023-03-10T17:27:41.733Z,98.40
2023-03-10T17:30:09.755Z,98.50
2023-03-10T17:32:37.190Z,98.40
2023-03-10T17:35:04.954Z,98.40
2023-03-10T17:37:31.675Z,98.40
2023-03-10T17:39:58.434Z,98.40
2023-03-10T17:42:26.624Z,98.50
2023-03-10T17:44:53.374Z,98.50
2023-03-10T17:47:20.163Z,98.50
2023-03-10T17:49:46.914Z,98.60
2023-03-10T17:52:13.723Z,98.60
2023-03-10T17:54:40.703Z,98.60
2023-03-10T17:57:07.478Z,98.60
2023-03-10T17:59:37.478Z,98.60
2023-03-10T18:02:04.401Z,98.60
2023-03-10T18:04:31.683Z,98.60
2023-03-10T18:06:58.366Z,98.80
2023-03-10T18:09:25.197Z,98.60
2023-03-10T18:11:54.200Z,98.60
2023-03-10T18:14:21.031Z,98.80
2023-03-10T18:16:47.823Z,98.70
2023-03-10T18:19:15.392Z,98.70
2023-03-10T18:21:42.127Z,98.60
2023-03-10T18:24:12.285Z,98.80
2023-03-10T18:26:43.316Z,98.70
2023-03-10T18:29:10.901Z,98.70
2023-03-10T18:31:37.756Z,98.80
2023-03-10T18:34:05.006Z,98.80
2023-03-10T18:36:33.036Z,98.70
2023-03-10T18:39:00.066Z,98.70
2023-03-10T18:41:29.357Z,98.80
2023-03-10T18:43:56.132Z,98.80
2023-03-10T18:46:22.997Z,98.80
2023-03-10T18:48:55.550Z,98.90
2023-03-10T18:51:23.617Z,98.80
2023-03-10T18:53:50.509Z,98.80
2023-03-10T18:56:17.733Z,98.80
2023-03-10T18:58:44.672Z,98.80
2023-03-10T19:01:12.312Z,98.90
2023-03-10T19:03:39.494Z,98.90
2023-03-10T19:06:07.021Z,98.80
2023-03-10T19:08:37.883Z,98.90
2023-03-10T19:11:05.130Z,98.90
2023-03-10T19:13:32.149Z,98.80
2023-03-10T19:15:58.941Z,98.90
2023-03-10T19:18:25.745Z,98.90
2023-03-10T19:20:58.180Z,99.10
2023-03-10T19:23:24.931Z,98.90
2023-03-10T19:25:51.772Z,98.90
2023-03-10T19:28:18.550Z,98.90
2023-03-10T19:30:45.251Z,99.00
2023-03-10T19:33:12.029Z,98.90
2023-03-10T19:35:39.019Z,98.90
2023-03-10T19:38:05.813Z,98.90
2023-03-10T19:40:32.644Z,99.00
2023-03-10T19:42:59.491Z,98.90
2023-03-10T19:45:26.355Z,98.80
2023-03-10T19:47:54.540Z,98.90
2023-03-10T19:50:21.764Z,98.90
2023-03-10T19:52:49.329Z,98.90
2023-03-10T19:55:21.821Z,99.10
2023-03-10T19:57:52.646Z,98.90
2023-03-10T20:00:25.661Z,98.90
2023-03-10T20:02:55.389Z,99.00
2023-03-10T20:05:22.856Z,98.90
2023-03-10T20:07:49.754Z,99.10
2023-03-10T20:10:17.495Z,99.00
2023-03-10T20:12:44.842Z,99.00
2023-03-10T20:15:11.685Z,98.90
2023-03-10T20:17:38.581Z,98.90
2023-03-10T20:20:10.327Z,98.90
2023-03-10T20:22:41.142Z,99.00
2023-03-10T20:25:08.664Z,98.90
2023-03-10T20:27:35.839Z,98.90
2023-03-10T20:30:05.357Z,98.90
2023-03-10T20:32:32.216Z,99.20
2023-03-10T20:34:59.006Z,99.00
2023-03-10T20:37:25.898Z,99.00
2023-03-10T20:39:52.633Z,98.90
2023-03-10T20:42:19.447Z,98.90
2023-03-10T20:44:46.246Z,99.10
2023-03-10T20:47:13.008Z,98.90
2023-03-10T20:49:39.863Z,99.00
2023-03-10T20:52:06.908Z,98.90
2023-03-10T20:54:33.645Z,99.00
2023-03-10T20:57:00.478Z,99.00
2023-03-10T20:59:27.305Z,99.10
2023-03-10T21:01:54.442Z,99.00
2023-03-10T21:04:21.230Z,99.30
2023-03-10T21:06:48.189Z,99.10
2023-03-10T21:09:15.030Z,98.90
2023-03-10T21:11:41.958Z,99.10
2023-03-10T21:14:08.835Z,98.90
2023-03-10T21:16:39.794Z,99.00
2023-03-10T21:19:06.736Z,99.00
2023-03-10T21:21:34.672Z,98.80
2023-03-10T21:24:02.148Z,98.90
2023-03-10T21:26:28.996Z,98.90
2023-03-10T21:28:56.107Z,98.90
2023-03-10T21:31:23.242Z,99.00
2023-03-10T21:33:50.296Z,99.10
2023-03-10T21:36:18.437Z,99.30
2023-03-10T21:38:48.807Z,99.10
2023-03-10T21:41:22.831Z,99.00
2023-03-10T21:43:49.962Z,99.20
2023-03-10T21:46:16.781Z,99.60
2023-03-10T21:48:44.383Z,99.10
2023-03-10T21:51:15.132Z,99.20
2023-03-10T21:53:42.401Z,98.90
2023-03-10T21:56:09.603Z,99.10
2023-03-10T21:58:36.498Z,98.90
2023-03-10T22:01:07.120Z,99.20
2023-03-10T22:03:34.474Z,99.30
2023-03-10T22:06:01.469Z,98.90
2023-03-10T22:08:28.213Z,99.30
2023-03-10T22:10:55.033Z,99.10
2023-03-10T22:13:21.835Z,99.60
2023-03-10T22:15:48.816Z,99.10
2023-03-10T22:18:15.714Z,99.10
2023-03-10T22:20:42.430Z,99.50
2023-03-10T22:23:09.187Z,99.00
2023-03-10T22:25:36.566Z,99.50
2023-03-10T22:28:03.441Z,99.10
2023-03-10T22:30:31.761Z,99.20
2023-03-10T22:32:58.935Z,99.60
2023-03-10T22:35:25.696Z,99.20
2023-03-10T22:37:53.340Z,99.60
2023-03-10T22:40:21.621Z,99.30
2023-03-10T22:42:48.541Z,99.40
2023-03-10T22:45:20.460Z,99.70
2023-03-10T22:47:47.759Z,99.20
2023-03-10T22:50:19.160Z,99.50
2023-03-10T22:52:45.908Z,99.00
2023-03-10T22:55:14.590Z,99.20
2023-03-10T22:57:41.392Z,99.30
2023-03-10T23:00:09.740Z,99.70
2023-03-10T23:02:36.625Z,99.00
2023-03-10T23:05:03.433Z,99.20
2023-03-10T23:07:30.147Z,99.70
2023-03-10T23:09:57.207Z,99.30
2023-03-10T23:12:24.101Z,99.70
2023-03-10T23:14:50.812Z,99.50
2023-03-10T23:17:17.977Z,99.10
2023-03-10T23:19:44.698Z,99.10
2023-03-10T23:22:11.414Z,99.20
2023-03-10T23:24:38.230Z,99.00
2023-03-10T23:27:04.972Z,99.10
2023-03-10T23:29:31.709Z,99.10
2023-03-10T23:31:58.484Z,99.10
2023-03-10T23:34:25.249Z,99.50
2023-03-10T23:36:51.985Z,99.70
2023-03-10T23:39:18.739Z,99.30
2023-03-10T23:41:45.460Z,99.20
2023-03-10T23:44:12.214Z,99.60
2023-03-10T23:46:39.261Z,99.40
2023-03-10T23:49:06.029Z,99.30
2023-03-10T23:51:32.742Z,99.20
2023-03-10T23:53:59.515Z,99.30
2023-03-10T23:56:26.270Z,99.90
2023-03-10T23:58:53.019Z,99.20
